Terminal Aerodrome Forecast
Issued by NWS

Home | Current Version | Previous Version | Text Only | Print | Product List | Glossary On
Versions: 1 2 3 4 5 6 7 8 9 10 11 12 13 14 15 16 17
000
FTUS43 KDTX 311122
TAFDET
TAF
KDET 311122Z 3112/0112 23008KT 6SM -SHRA BR OVC035
     FM311400 28009KT 6SM -SHRA BR OVC022
     FM311700 32015KT 2SM SHRA BR OVC012
     FM312000 36020G30KT 4SM SHRA OVC008
     FM010100 36015G25KT 4SM -SHRASN OVC015=

USA.gov is the U.S. government's official web portal to all federal, state and local government web resources and services.